»·PEaware :: DLH320 KLAX-KLAS

DLH320 :: KLAX-KLAS

FLIGHT INFORMATION

Flight Status: Arrived
Operator:
Lufthansa
More flights by this operator :: More flights under this callsign
Pilot: Miguel Angel F. (25809)
Aircraft: AIRBUS A320
(A320)
More flights by this aircraft type
Origin: KLAX Los Angeles Intl
United States
Destination: KLAS McCarran Intl
United States
More flights between these airports :: More routes between these airports
Route: +ORCKA4 MISEN KEPEC6
File this flight plan on PilotEdge
Remarks: RMK / SIMBRIEF
Altitude:
(Current/Filed)
33,000ft
Speed:
(Current/Filed)
453kts
Departed: 20-Mar-20 02:16 PM
Arrived: 20-Mar-20 03:10 PM
Distance/Time
Traveled:
205nm/0:54
Distance/Time
To Go:
Arrived

Flight Plot

Page will automatically refresh every two minutes.

Flight plan parsing failed; only flown route is shown


Map Options




Map Legend


Flown Route
Filed Route
Departure Airport
Arrival Airport
Navaid (VOR, NDB)
Fix

Horizontal Profiles

Position Reports

Time Latitude Longitude Heading Altitude Ground
Speed
20-Mar-20 13:40 33.940335 -118.397658 58 114ft 0kts
20-Mar-20 13:41 33.940335 -118.397658 58 114ft 0kts
20-Mar-20 13:42 33.940335 -118.397658 58 114ft 0kts
20-Mar-20 13:43 33.940335 -118.397658 58 114ft 0kts
20-Mar-20 13:44 33.940335 -118.397658 58 114ft 0kts
20-Mar-20 13:44 33.940335 -118.397658 58 114ft 0kts
20-Mar-20 13:45 33.940335 -118.397658 58 114ft 0kts
20-Mar-20 13:47 33.940335 -118.397658 58 114ft 0kts
20-Mar-20 13:48 33.940335 -118.397658 58 114ft 0kts
20-Mar-20 13:48 33.940335 -118.397658 58 114ft 0kts
20-Mar-20 13:49 33.940335 -118.397658 58 114ft 0kts
20-Mar-20 13:51 33.940335 -118.397658 58 114ft 0kts
20-Mar-20 13:51 33.940335 -118.397658 58 114ft 0kts
20-Mar-20 13:52 33.940335 -118.397658 58 114ft 0kts
20-Mar-20 13:54 33.940335 -118.397658 58 114ft 0kts
20-Mar-20 13:54 33.940335 -118.397658 58 114ft 0kts
20-Mar-20 13:55 33.940335 -118.397658 58 114ft 0kts
20-Mar-20 13:56 33.940335 -118.397658 58 114ft 0kts
20-Mar-20 13:57 33.940335 -118.397658 58 114ft 0kts
20-Mar-20 13:58 33.940335 -118.397658 58 114ft 0kts
20-Mar-20 13:59 33.940335 -118.397658 58 114ft 0kts
20-Mar-20 14:00 33.940335 -118.397658 58 114ft 0kts
20-Mar-20 14:01 33.940258 -118.397703 345 114ft 2kts
20-Mar-20 14:02 33.939821 -118.397792 54 114ft 0kts
20-Mar-20 14:03 33.940209 -118.398038 179 114ft 2kts
20-Mar-20 14:04 33.940442 -118.398174 75 114ft 1kts
20-Mar-20 14:05 33.940540 -118.398281 181 114ft 0kts
20-Mar-20 14:06 33.940540 -118.398281 181 114ft 0kts
20-Mar-20 14:07 33.940540 -118.398281 181 114ft 0kts
20-Mar-20 14:08 33.940540 -118.398281 181 114ft 0kts
20-Mar-20 14:09 33.940540 -118.398281 181 114ft 0kts
20-Mar-20 14:10 33.939625 -118.397930 171 114ft 5kts
20-Mar-20 14:11 33.939211 -118.395813 82 111ft 16kts
20-Mar-20 14:12 33.939991 -118.388445 83 104ft 29kts
20-Mar-20 14:13 33.940777 -118.380487 89 101ft 0kts
20-Mar-20 14:14 33.940043 -118.380080 211 101ft 11kts
20-Mar-20 14:15 33.937410 -118.403422 264 183ft 180kts
20-Mar-20 14:16 33.931684 -118.463019 257 3028ft 192kts
20-Mar-20 14:17 33.909634 -118.540611 249 3208ft 266kts
20-Mar-20 14:18 33.884182 -118.624819 246 3209ft 266kts
20-Mar-20 14:19 33.825496 -118.639975 130 4258ft 264kts
20-Mar-20 14:20 33.838528 -118.560808 49 7616ft 282kts
20-Mar-20 14:21 33.888508 -118.494000 48 10407ft 301kts
20-Mar-20 14:22 33.943375 -118.414273 55 11686ft 366kts
20-Mar-20 14:23 33.998936 -118.316205 55 12662ft 413kts
20-Mar-20 14:24 34.064705 -118.200274 55 14413ft 430kts
20-Mar-20 14:25 34.134978 -118.075982 55 15316ft 437kts
20-Mar-20 14:26 34.204111 -117.953175 54 16786ft 452kts
20-Mar-20 14:27 34.275983 -117.825065 54 18192ft 466kts
20-Mar-20 14:28 34.349654 -117.693392 53 19486ft 478kts
20-Mar-20 14:29 34.428679 -117.561002 52 20692ft 489kts
20-Mar-20 14:30 34.509417 -117.425331 51 21813ft 500kts
20-Mar-20 14:31 34.590696 -117.288259 52 23772ft 484kts
20-Mar-20 14:32 34.668468 -117.156659 51 25297ft 489kts
20-Mar-20 14:33 34.750339 -117.017439 51 25749ft 516kts
20-Mar-20 14:34 34.835912 -116.871432 51 26149ft 535kts
20-Mar-20 14:35 34.923412 -116.721528 51 26933ft 540kts
20-Mar-20 14:36 35.009115 -116.569689 52 27876ft 541kts
20-Mar-20 14:37 35.095413 -116.417076 49 28494ft 540kts
20-Mar-20 14:38 35.198000 -116.284129 42 25475ft 535kts
20-Mar-20 14:39 35.301334 -116.154379 43 24255ft 522kts
20-Mar-20 14:40 35.403164 -116.025913 43 23895ft 519kts
20-Mar-20 14:41 35.501964 -115.900844 43 20387ft 490kts
20-Mar-20 14:42 35.589888 -115.789212 43 18034ft 411kts
20-Mar-20 14:43 35.662254 -115.697033 43 16436ft 351kts
20-Mar-20 14:44 35.728259 -115.612635 44 13979ft 332kts
20-Mar-20 14:45 35.805807 -115.572677 359 13035ft 313kts
20-Mar-20 14:46 35.892739 -115.567949 359 13019ft 312kts
20-Mar-20 14:47 35.977137 -115.548963 14 12926ft 310kts
20-Mar-20 14:48 36.024229 -115.471740 86 12334ft 292kts
20-Mar-20 14:49 36.030758 -115.373543 92 11000ft 272kts
20-Mar-20 14:50 36.024446 -115.283316 97 9918ft 261kts
20-Mar-20 14:51 36.018593 -115.202540 96 8980ft 259kts
20-Mar-20 14:52 36.012468 -115.112706 96 8126ft 245kts
20-Mar-20 14:53 36.007560 -115.034847 95 8012ft 216kts
20-Mar-20 14:54 36.003237 -114.962091 96 8013ft 214kts
20-Mar-20 14:55 35.998807 -114.888602 96 8013ft 214kts
20-Mar-20 14:56 35.994323 -114.815384 96 8013ft 214kts
20-Mar-20 14:57 35.989483 -114.742076 96 8013ft 214kts
20-Mar-20 14:58 35.984615 -114.668811 95 8013ft 214kts
20-Mar-20 14:59 36.020096 -114.640639 302 8010ft 169kts
20-Mar-20 15:00 36.031640 -114.695421 280 8012ft 165kts
20-Mar-20 15:01 36.042030 -114.750675 279 8012ft 165kts
20-Mar-20 15:02 36.051755 -114.806013 279 8012ft 165kts
20-Mar-20 15:03 36.061841 -114.860691 282 7204ft 162kts
20-Mar-20 15:04 36.072999 -114.913827 276 5893ft 158kts
20-Mar-20 15:05 36.073973 -114.967646 267 5018ft 157kts
20-Mar-20 15:06 36.073855 -115.024894 268 3686ft 161kts
20-Mar-20 15:07 36.073744 -115.077023 268 2863ft 147kts
20-Mar-20 15:08 36.073610 -115.127468 271 2075ft 146kts
20-Mar-20 15:09 36.074686 -115.145852 300 2104ft 1kts
20-Mar-20 15:10 36.075506 -115.146548 354 2105ft 5kts
20-Mar-20 15:11 36.077522 -115.146695 324 2104ft 0kts
20-Mar-20 15:12 36.077522 -115.146695 324 2104ft 0kts
20-Mar-20 15:13 36.077696 -115.146203 98 2102ft 14kts

Navigation Log

Ident Type
Flight plan parsing failed, navigation log unavailable